Anza Borrego Desert Research Center, California Weather observations

Data are for 10 minute period ending at time listed.
 Day   Time   Solar   Ave.   Ave.  Ave.  Vector  Max.   Baro.   Total    
  of    of     Rad.   Air    Rel.  Wind   Wind   Wind  Press.  Precip.   
Year   Day            Temp.  Hum.  Speed  Dir.   Gust                    
2015   (PST)  Kw/m2    F      %     mph   deg.    mph    mb.     in.     
-------------------------------------------------------------------------
  84   13:50   0.79   88.8    11    7.4   168    11.4   502.1    0.00 
  84   14:00   0.77   89.5    11    4.5   191    12.4   502.1    0.00 
  84   14:10   0.74   89.7    11    8.9   230    16.1   502.1    0.00 
  84   14:20   0.72   89.4    11    8.0   154    14.2   502.1    0.00 
  84   14:30   0.69   88.6    12    8.7   126    21.3   502.1    0.00 
  84   14:40   0.67   88.6    12    9.9   160    16.9   502.1    0.00 
  84   14:50   0.64   88.1    12    9.0   169    16.5   502.1    0.00 
  84   15:00   0.61   88.4    12   10.8   153    16.6   502.1    0.00 
  84   15:10   0.58   88.4    12   10.8   164    19.7   502.1    0.00 
  84   15:20   0.54   88.3    12   10.0   158    17.3   502.1    0.00 
  84   15:30   0.51   88.6    12    9.6   166    16.2   502.1    0.00 
  84   15:40   0.48   87.8    12    8.9   137    15.5   502.1    0.00 
  84   15:50   0.44   87.7    12   10.1   159    15.9   502.1    0.00 
  84   16:00   0.41   87.4    12    7.1   141    12.3   502.1    0.00 
  84   16:10   0.37   88.2    12    7.2   158    11.8   502.1    0.00 
  84   16:20   0.33   87.6    12    8.5   159    12.6   502.1    0.00 
  84   16:30   0.29   87.3    12    9.0   140    14.6   502.1    0.00 
  84   16:40   0.25   87.2    12    8.5   169    15.8   502.1    0.00 
  84   16:50   0.22   87.2    12    9.8   174    15.9   502.1    0.00 
  84   17:00   0.16   87.0    13    8.2   161    14.8   502.1    0.00 
  84   17:10   0.03   84.9    13   10.4   162    15.3   502.0    0.00 
  84   17:20   0.02   84.0    14    8.6   154    14.2   502.0    0.00 
  84   17:30   0.01   83.7    14    7.1   155    11.0   502.0    0.00 
  84   17:40   0.01   83.2    14    6.3   168     9.1   502.0    0.00 
  84   17:50   0.01   82.4    14    3.7   186     5.4   502.0    0.00 
  84   18:00   0.00   80.4    15    4.5   202     6.1   502.0    0.00 
  84   18:10   0.00   80.2    15    5.6   201     7.4   502.0    0.00 
  84   18:20   0.00   79.8    15    6.0   225     9.6   502.0    0.00 
  84   18:30   0.00   79.1    16    9.5   232    12.7   501.9    0.00 
  84   18:40   0.00   79.1    16    9.2   237    12.1   501.9    0.00 
  84   18:50   0.00   78.8    16    9.7   236    12.2   501.9    0.00 
  84   19:00   0.00   78.8    16    9.8   238    12.3   501.9    0.00 
  84   19:10   0.00   78.6    16   10.4   234    13.7   501.8    0.00 
  84   19:20   0.00   78.4    16    9.3   236    12.5   501.8    0.00 
  84   19:30   0.00   78.1    17   10.0   232    13.7   501.8    0.00 
  84   19:40   0.00   78.2    16    9.6   231    13.4   501.8    0.00 
  84   19:50   0.00   77.8    17    9.5   226    11.9   501.8    0.00 
  84   20:00   0.00   77.7    17    8.2   231    11.0   501.8    0.00 
  84   20:10   0.00   77.3    17    8.4   239    11.5   501.8    0.00 
  84   20:20   0.00   77.4    17    8.8   241    12.2   501.8    0.00 
  84   20:30   0.00   77.5    17    7.3   252     8.9   501.8    0.00 
  84   20:40   0.00   76.8    17    5.3   256     8.6   501.8    0.00 
  84   20:50   0.00   75.8    18    6.4   251     9.1   501.8    0.00 
  84   21:00   0.00   73.7    19    8.2   243    10.6   501.8    0.00 
  84   21:10   0.00   74.2    18    7.2   249    10.7   501.8    0.00 
  84   21:20   0.00   73.3    19    6.7   255     9.7   501.8    0.00 
  84   21:30   0.00   73.2    19    7.0   237    10.4   501.8    0.00 
  84   21:40   0.00   73.9    19    7.9   244    10.2   501.8    0.00 
  84   21:50   0.00   74.1    19    7.2   268    11.2   501.8    0.00 
  84   22:00   0.00   76.3    17    8.1   265    12.3   501.8    0.00 
  84   22:10   0.00   76.2    17    4.1   261     7.3   501.8    0.00 
  84   22:20   0.00   72.4    19    4.5   256     6.4   501.8    0.00 
  84   22:30   0.00   72.6    19    4.4   256     7.4   501.8    0.00 
  84   22:40   0.00   73.8    18    4.0   243     7.1   501.8    0.00 
  84   22:50   0.00   72.9    18    4.3   257     7.4   501.8    0.00 
  84   23:00   0.00   72.7    18    4.7   254     6.9   501.8    0.00 
  84   23:10   0.00   72.0    18    5.4   245     8.3   501.8    0.00 
  84   23:20   0.00   72.2    17    6.5   250     8.1   501.8    0.00 
  84   23:30   0.00   71.6    17    6.0   246     8.5   501.8    0.00 
  84   23:40   0.00   71.8    17    5.7   244     8.4   501.8    0.00 
  84   23:50   0.00   72.9    16    6.2   244     9.7   501.8    0.00 
  85    0:00   0.00   73.8    15    6.0   243     7.4   501.8    0.00 
  85    0:10   0.00   72.5    16    4.8   237     9.3   501.8    0.00 
  85    0:20   0.00   72.3    16    5.1   239     8.1   501.8    0.00 
  85    0:30   0.00   72.5    16    7.4   254    10.2   501.8    0.00 
  85    0:40   0.00   72.0    16    8.3   254    11.5   501.8    0.00 
  85    0:50   0.00   72.8    15    7.5   249    10.7   501.8    0.00 
  85    1:00   0.00   72.0    16    5.7   237     7.8   501.8    0.00 
  85    1:10   0.00   70.1    17    1.9   211     4.4   501.8    0.00 
  85    1:20   0.00   68.6    18    5.9   253     8.8   501.8    0.00 
  85    1:30   0.00   69.7    17    3.9   270     7.7   501.8    0.00 
  85    1:40   0.00   69.4    18    4.0   288     6.4   501.8    0.00 
  85    1:50   0.00   68.8    18    5.0   249     6.9   501.8    0.00 
  85    2:00   0.00   67.9    18    3.0   267     4.1   501.8    0.00 
  85    2:10   0.00   66.7    19    3.4   250     6.8   501.8    0.00 
  85    2:20   0.00   67.6    19    5.3   252     7.4   501.8    0.00 
  85    2:30   0.00   66.6    19    4.5   262     6.8   501.8    0.00 
  85    2:40   0.00   66.2    20    2.6   268     4.2   501.8    0.00 
  85    2:50   0.00   70.1    18    5.7   260    10.0   501.8    0.00 
  85    3:00   0.00   72.2    16    4.6   269     8.9   501.8    0.00 
  85    3:10   0.00   72.0    17    5.7   246     8.5   501.8    0.00 
  85    3:20   0.00   70.5    18    7.7   233     9.8   501.8    0.00 
  85    3:30   0.00   69.5    18    6.3   235     9.5   501.8    0.00 
  85    3:40   0.00   69.9    18    6.8   240     9.5   501.8    0.00 
  85    3:50   0.00   70.4    18    5.4   262    10.0   501.8    0.00 
  85    4:00   0.00   70.0    18    3.8   290     7.5   501.8    0.00 
  85    4:10   0.00   69.8    18    5.3   257     8.7   501.8    0.00 
  85    4:20   0.00   69.0    18    4.6   273     9.9   501.8    0.00 
  85    4:30   0.00   69.6    18    1.5   314     4.0   501.8    0.00 
  85    4:40   0.00   69.9    18    4.8   289     9.6   501.8    0.00 
  85    4:50   0.00   70.6    18    2.6   318     5.3   501.8    0.00 
  85    5:00   0.00   68.8    18    1.6    72     3.6   501.8    0.00 
  85    5:10   0.00   67.7    19    1.9   188     6.3   501.8    0.00 
  85    5:20   0.00   65.9    21    5.2   231     7.5   501.8    0.00 
  85    5:30   0.00   65.1    21    4.4   220     5.8   501.8    0.00 
  85    5:40   0.00   64.1    22    3.5   223     5.3   501.8    0.00 
  85    5:50   0.00   67.7    19    5.5   225     9.1   501.8    0.00 
  85    6:00   0.02   70.1    18    5.6   226     9.7   501.8    0.00 
  85    6:10   0.04   70.0    18    4.6   200     7.1   501.8    0.00 
  85    6:20   0.07   68.3    20    3.7   254     5.8   501.8    0.00 
  85    6:30   0.10   71.2    18    1.0   285     3.2   501.8    0.00 
  85    6:40   0.13   74.1    17    0.8   338     2.0   501.8    0.00 
  85    6:50   0.16   73.0    18    2.4    73     5.1   501.8    0.00 
  85    7:00   0.20   71.9    18    3.3   332     5.9   501.8    0.00 
  85    7:10   0.24   73.1    18    1.5    39     3.1   501.8    0.00 
  85    7:20   0.27   76.1    16    0.5    95     1.7   501.8    0.00 
  85    7:30   0.31   77.1    16    1.5   309     3.2   501.8    0.00 
  85    7:40   0.35   79.0    15    0.9   210     2.2   501.8    0.00 
  85    7:50   0.39   80.1    14    2.4   161     4.2   501.8    0.00 
  85    8:00   0.42   81.1    14    3.5   179     5.0   501.8    0.00 
  85    8:10   0.46   82.5    13    2.4   214     4.0   501.8    0.00 
  85    8:20   0.50   84.1    12    2.7   192     6.5   501.8    0.00 
  85    8:30   0.53   83.9    12    3.8   160     7.1   501.9    0.00 
  85    8:40   0.57   84.3    12    2.7   131     5.7   502.0    0.00 
  85    8:50   0.60   84.1    12    3.5   122     7.6   502.0    0.00 
  85    9:00   0.63   84.5    12    4.4   117     8.9   502.0    0.00 
  85    9:10   0.66   84.7    12    4.5   152     8.5   502.0    0.00 
  85    9:20   0.69   84.9    12    4.5   136     7.2   502.0    0.00 
  85    9:30   0.72   85.0    12    5.2   146     8.7   502.0    0.00 
  85    9:40   0.74   85.5    11    3.7   117     7.3   502.0    0.00 
  85    9:50   0.77   85.8    11    4.1   164     6.7   502.0    0.00 
  85   10:00   0.79   86.9    11    4.7   159     8.2   502.0    0.00 
  85   10:10   0.81   86.8    11    3.3   155     6.8   502.1    0.00 
  85   10:20   0.84   87.0    11    5.5   122    12.1   502.1    0.00 
  85   10:30   0.85   86.9    10    4.9   118    12.3   502.1    0.00 
  85   10:40   0.87   87.3    10    4.4    93     9.9   502.1    0.00 
  85   10:50   0.88   88.1    10    6.2   131    10.5   502.1    0.00 
  85   11:00   0.89   88.7    10    5.4   125     9.1   502.1    0.00 
  85   11:10   0.90   88.7    10    6.7   183    14.1   502.1    0.00 
  85   11:20   0.91   88.6    10    6.1   209    11.4   502.1    0.00 
  85   11:30   0.91   89.1    10    9.3   180    17.2   502.1    0.00 
  85   11:40   0.92   88.5    10    7.9   144    19.1   502.1    0.00 
  85   11:50   0.93   88.6    10    7.5   171    16.1   502.1    0.00 
  85   12:00   0.93   89.2    10    8.0   121    16.4   502.1    0.00 
  85   12:10   0.92   89.0    10    8.7   135    18.3   502.1    0.00 
  85   12:20   0.91   88.2    10    6.8    96    12.9   502.1    0.00 
  85   12:30   0.91   89.4    10    5.4   204    11.9   502.1    0.00 
  85   12:40   0.90   89.6    10    5.9   157    12.9   502.1    0.00 
  85   12:50   0.89   89.9    10    6.0    68    12.1   502.1    0.00 
  85   13:00   0.87   89.5    10    6.3   155    11.2   502.1    0.00 
  85   13:10   0.87   90.2    10    5.5   167    11.2   502.1    0.00 
  85   13:20   0.86   90.5    10    5.8   145    12.1   502.1    0.00 
  85   13:30   0.84   89.8    10    5.1   112    11.3   502.2    0.00 
  85   13:40   0.82   90.5    10    9.2   133    16.7   502.3    0.00 

Return to Anza Borrego Desert Research Center graphs page.


Western Regional Climate Center,wrcc@dri.edu